createdAt,value
2022-09-26T00:01:59.084Z,99484.91
2022-09-26T00:05:02.665Z,99470.66
2022-09-26T00:08:06.241Z,99469.84
2022-09-26T00:11:11.366Z,99464.12
2022-09-26T00:14:17.001Z,99463.16
2022-09-26T00:17:20.122Z,99466.53
2022-09-26T00:20:22.745Z,99455.34
2022-09-26T00:23:25.560Z,99445.56
2022-09-26T00:26:30.267Z,99458.69
2022-09-26T00:29:33.019Z,99445.59
2022-09-26T00:32:35.578Z,99444.91
2022-09-26T00:35:38.520Z,99437.50
2022-09-26T00:38:41.099Z,99437.50
2022-09-26T00:41:47.760Z,99453.38
2022-09-26T00:44:55.370Z,99450.63
2022-09-26T00:48:05.398Z,99442.84
2022-09-26T00:51:08.215Z,99434.22
2022-09-26T00:54:13.873Z,99424.69
2022-09-26T00:57:22.204Z,99421.25
2022-09-26T01:00:25.478Z,99414.37
2022-09-26T01:03:31.987Z,99403.66
2022-09-26T01:06:35.584Z,99399.66
2022-09-26T01:09:39.359Z,99404.91
2022-09-26T01:12:43.900Z,99414.41
2022-09-26T01:15:46.342Z,99399.75
2022-09-26T01:18:49.644Z,99400.50
2022-09-26T01:22:10.683Z,99400.06
2022-09-26T01:26:02.890Z,99395.38
2022-09-26T01:29:27.449Z,99405.25
2022-09-26T01:32:48.933Z,99399.72
2022-09-26T01:36:25.748Z,99393.34
2022-09-26T01:39:28.805Z,99383.63
2022-09-26T01:42:40.172Z,99378.41
2022-09-26T01:46:24.654Z,99389.84
2022-09-26T01:49:44.676Z,99381.38
2022-09-26T01:53:27.859Z,99384.72
2022-09-26T01:56:37.140Z,99380.78
2022-09-26T01:59:53.552Z,99384.19
2022-09-26T02:02:59.526Z,99386.59
2022-09-26T02:06:18.150Z,99363.03
2022-09-26T02:09:27.167Z,99369.28
2022-09-26T02:12:37.226Z,99362.59
2022-09-26T02:15:44.199Z,99379.59
2022-09-26T02:18:54.420Z,99376.53
2022-09-26T02:21:59.099Z,99368.59
2022-09-26T02:25:04.469Z,99370.91
2022-09-26T02:28:07.928Z,99359.28
2022-09-26T02:31:15.265Z,99345.87
2022-09-26T02:34:18.187Z,99342.44
2022-09-26T02:37:21.673Z,99336.25
2022-09-26T02:40:33.446Z,99332.97
2022-09-26T02:44:00.308Z,99339.75
2022-09-26T02:47:34.159Z,99345.09
2022-09-26T02:51:01.987Z,99358.09
2022-09-26T02:54:20.052Z,99373.28
2022-09-26T02:57:46.087Z,99388.19
2022-09-26T03:01:02.453Z,99376.59
2022-09-26T03:04:21.920Z,99368.50
2022-09-26T03:07:30.709Z,99348.88
2022-09-26T03:10:35.515Z,99364.66
2022-09-26T03:13:40.630Z,99359.78
2022-09-26T03:16:45.505Z,99348.28
2022-09-26T03:19:59.222Z,99349.47
2022-09-26T03:23:03.299Z,99343.69
2022-09-26T03:26:13.935Z,99350.06
2022-09-26T03:29:20.087Z,99363.44
2022-09-26T03:32:23.998Z,99347.31
2022-09-26T03:35:26.788Z,99335.06
2022-09-26T03:38:29.706Z,99314.75
2022-09-26T03:41:34.968Z,99300.66
2022-09-26T03:44:39.154Z,99299.63
2022-09-26T03:47:44.109Z,99293.06
2022-09-26T03:50:48.041Z,99300.13
2022-09-26T03:53:51.493Z,99295.56
2022-09-26T03:56:57.327Z,99286.09
2022-09-26T04:00:00.869Z,99283.84
2022-09-26T04:03:07.720Z,99286.94
2022-09-26T04:06:11.827Z,99278.47
2022-09-26T04:09:20.076Z,99280.12
2022-09-26T04:12:23.557Z,99275.41
2022-09-26T04:15:29.600Z,99271.94
2022-09-26T04:18:35.262Z,99277.78
2022-09-26T04:21:41.276Z,99272.50
2022-09-26T04:24:45.160Z,99272.19
2022-09-26T04:27:48.957Z,99254.13
2022-09-26T04:30:51.849Z,99253.59
2022-09-26T04:33:55.566Z,99256.13
2022-09-26T04:37:00.482Z,99244.28
2022-09-26T04:40:04.854Z,99242.16
2022-09-26T04:43:08.764Z,99247.19
2022-09-26T04:46:18.556Z,99242.75
2022-09-26T04:49:28.096Z,99240.47
2022-09-26T04:52:52.994Z,99251.03
2022-09-26T04:56:09.423Z,99245.16
2022-09-26T04:59:14.684Z,99240.53
2022-09-26T05:02:20.265Z,99240.53
2022-09-26T05:05:25.696Z,99251.34
2022-09-26T05:08:28.664Z,99251.88
2022-09-26T05:11:33.219Z,99260.72
2022-09-26T05:14:36.372Z,99272.75
2022-09-26T05:17:39.365Z,99269.16
2022-09-26T05:20:48.412Z,99264.13
2022-09-26T05:24:09.549Z,99264.94
2022-09-26T05:27:14.184Z,99262.97
2022-09-26T05:30:16.856Z,99271.84
2022-09-26T05:33:21.379Z,99273.81
2022-09-26T05:36:27.917Z,99279.34
2022-09-26T05:39:49.914Z,99273.97
2022-09-26T05:43:00.097Z,99271.03
2022-09-26T05:46:06.436Z,99250.84
2022-09-26T05:50:13.070Z,99245.16
2022-09-26T05:53:18.528Z,99265.09
2022-09-26T05:56:57.160Z,99265.75
2022-09-26T06:00:04.583Z,99281.03
2022-09-26T06:03:20.117Z,99287.00
2022-09-26T06:06:26.252Z,99276.31
2022-09-26T06:09:29.290Z,99275.72
2022-09-26T06:12:38.503Z,99252.38
2022-09-26T06:15:43.710Z,99251.69
2022-09-26T06:19:34.537Z,99235.06
2022-09-26T06:23:24.162Z,99210.19
2022-09-26T06:26:33.224Z,99211.41
2022-09-26T06:29:37.803Z,99227.28
2022-09-26T06:32:41.310Z,99231.22
2022-09-26T06:36:15.240Z,99234.47
2022-09-26T06:39:18.169Z,99243.03
2022-09-26T06:42:25.296Z,99249.66
2022-09-26T06:45:30.129Z,99249.09
2022-09-26T06:48:33.267Z,99247.41
2022-09-26T06:51:38.162Z,99239.69
2022-09-26T06:55:03.076Z,99247.13
2022-09-26T06:58:06.125Z,99259.28
2022-09-26T07:01:11.945Z,99254.22
2022-09-26T07:04:16.439Z,99247.31
2022-09-26T07:07:43.634Z,99242.19
2022-09-26T07:11:28.177Z,99245.47
2022-09-26T07:14:30.344Z,99252.75
2022-09-26T07:17:40.168Z,99256.63
2022-09-26T07:20:48.079Z,99245.28
2022-09-26T07:23:50.692Z,99247.00
2022-09-26T07:26:54.120Z,99242.75
2022-09-26T07:29:58.340Z,99247.97
2022-09-26T07:33:04.529Z,99250.28
2022-09-26T07:36:17.168Z,99254.13
2022-09-26T07:39:20.441Z,99250.34
2022-09-26T07:42:23.548Z,99255.63
2022-09-26T07:45:49.278Z,99266.81
2022-09-26T07:49:13.610Z,99281.47
2022-09-26T07:53:02.856Z,99278.53
2022-09-26T07:56:17.598Z,99272.13
2022-09-26T07:59:42.215Z,99283.09
2022-09-26T08:02:52.964Z,99299.00
2022-09-26T08:06:16.451Z,99296.75
2022-09-26T08:20:05.082Z,99286.75
2022-09-26T08:23:11.141Z,99275.38
2022-09-26T08:30:05.535Z,99286.41
2022-09-26T08:33:13.262Z,99277.41
2022-09-26T08:36:18.796Z,99278.34
2022-09-26T08:39:24.068Z,99283.31
2022-09-26T08:42:40.380Z,99280.28
2022-09-26T08:46:31.194Z,99284.75
2022-09-26T08:49:55.253Z,99283.28
2022-09-26T08:53:06.708Z,99281.03
2022-09-26T08:56:20.693Z,99279.72
2022-09-26T08:59:56.624Z,99275.41
2022-09-26T09:03:36.830Z,99286.41
2022-09-26T09:06:43.716Z,99291.75
2022-09-26T09:09:46.662Z,99289.44
2022-09-26T09:13:03.362Z,99295.69
2022-09-26T09:16:51.604Z,99289.84
2022-09-26T09:20:20.859Z,99290.34
2022-09-26T09:23:48.773Z,99285.88
2022-09-26T09:30:53.995Z,99281.72
2022-09-26T09:34:04.781Z,99289.72
2022-09-26T09:37:16.163Z,99284.41
2022-09-26T09:41:01.897Z,99280.47
2022-09-26T09:44:33.409Z,99282.97
2022-09-26T09:47:40.328Z,99279.13
2022-09-26T09:50:42.949Z,99271.91
2022-09-26T09:54:16.642Z,99257.94
2022-09-26T09:57:28.970Z,99259.91
2022-09-26T10:00:42.280Z,99247.00
2022-09-26T10:51:05.750Z,99261.06
2022-09-26T10:54:26.962Z,99264.88
2022-09-26T14:21:07.535Z,99175.72
2022-09-26T14:24:21.177Z,99164.31
2022-09-26T14:27:43.226Z,99152.28
2022-09-26T14:31:32.103Z,99152.25
2022-09-26T14:34:35.510Z,99141.28
2022-09-26T14:37:43.592Z,99141.66
2022-09-26T14:41:18.274Z,99130.84
2022-09-26T14:44:22.598Z,99121.31
2022-09-26T14:47:28.124Z,99125.66
2022-09-26T14:50:52.248Z,99128.41
2022-09-26T14:54:03.594Z,99127.09
2022-09-26T14:57:21.134Z,99128.31
2022-09-26T15:00:35.107Z,99117.91
2022-09-26T15:03:40.807Z,99130.66
2022-09-26T15:06:46.811Z,99133.78
2022-09-26T15:10:13.878Z,99124.69
2022-09-26T15:13:31.605Z,99125.94
2022-09-26T15:16:41.922Z,99122.53
2022-09-26T15:19:53.211Z,99110.16
2022-09-26T15:23:28.349Z,99104.38
2022-09-26T15:26:37.471Z,99115.16
2022-09-26T15:29:54.830Z,99107.94
2022-09-26T15:33:00.819Z,99110.31
2022-09-26T15:36:06.571Z,99109.28
2022-09-26T15:39:35.719Z,99110.44
2022-09-26T15:42:57.360Z,99103.44
2022-09-26T15:46:04.544Z,99104.75
2022-09-26T15:49:14.571Z,99102.56
2022-09-26T15:52:17.627Z,99110.75
2022-09-26T16:03:37.731Z,99103.97
2022-09-26T16:06:54.142Z,99106.47
2022-09-26T16:09:57.622Z,99093.69
2022-09-26T16:13:01.343Z,99100.75
2022-09-26T16:16:07.871Z,99108.81
2022-09-26T16:19:32.001Z,99107.28
2022-09-26T16:22:37.155Z,99109.09
2022-09-26T16:25:40.377Z,99103.22
2022-09-26T16:28:45.041Z,99108.19
2022-09-26T16:31:52.133Z,99100.19
2022-09-26T16:35:12.012Z,99100.09
2022-09-26T16:39:21.779Z,99100.19
2022-09-26T16:42:33.117Z,99106.97
2022-09-26T16:46:07.534Z,99109.00
2022-09-26T16:49:40.027Z,99105.91
2022-09-26T16:52:45.951Z,99115.91
2022-09-26T16:55:50.507Z,99111.53
2022-09-26T16:59:00.322Z,99105.72
2022-09-26T17:02:13.765Z,99104.66
2022-09-26T17:05:21.606Z,99096.25
2022-09-26T17:08:26.554Z,99104.63
2022-09-26T17:11:40.937Z,99104.22
2022-09-26T17:14:48.236Z,99107.28
2022-09-26T17:17:53.840Z,99104.69
2022-09-26T17:20:59.621Z,99103.88
2022-09-26T17:24:02.863Z,99101.09
2022-09-26T17:27:08.061Z,99107.84
2022-09-26T17:30:28.189Z,99116.34
2022-09-26T17:33:40.616Z,99110.53
2022-09-26T17:36:51.609Z,99122.69
2022-09-26T17:39:55.563Z,99117.37
2022-09-26T17:43:02.026Z,99112.94
2022-09-26T17:46:06.904Z,99114.19
2022-09-26T17:49:38.899Z,99114.50
2022-09-26T17:52:41.651Z,99107.34
2022-09-26T17:55:44.751Z,99111.19
2022-09-26T17:58:48.783Z,99109.84
2022-09-26T18:01:56.547Z,99111.00
2022-09-26T18:05:04.046Z,99110.34
2022-09-26T18:08:22.603Z,99097.06
2022-09-26T18:11:27.202Z,99101.44
2022-09-26T18:14:32.325Z,99110.09
2022-09-26T18:17:35.465Z,99102.47
2022-09-26T18:20:39.802Z,99111.41
2022-09-26T18:23:45.275Z,99107.44
2022-09-26T18:26:51.067Z,99103.81
2022-09-26T18:29:55.108Z,99100.28
2022-09-26T18:32:58.303Z,99104.13
2022-09-26T18:36:02.949Z,99099.00
2022-09-26T18:39:05.574Z,99098.31
2022-09-26T18:42:13.808Z,99094.19
2022-09-26T18:45:26.482Z,99095.47
2022-09-26T18:48:33.909Z,99097.31
2022-09-26T18:51:36.600Z,99102.63
2022-09-26T18:54:41.545Z,99096.66
2022-09-26T18:58:02.950Z,99097.44
2022-09-26T19:01:28.709Z,99094.78
2022-09-26T19:04:31.865Z,99093.44
2022-09-26T19:07:35.325Z,99093.44
2022-09-26T19:10:39.672Z,99085.13
2022-09-26T19:13:44.511Z,99092.47
2022-09-26T19:16:49.604Z,99088.81
2022-09-26T19:19:52.989Z,99097.41
2022-09-26T19:22:58.757Z,99102.91
2022-09-26T19:26:05.298Z,99105.06
2022-09-26T19:29:13.416Z,99105.03
2022-09-26T19:32:22.907Z,99111.19
2022-09-26T19:35:45.005Z,99117.16
2022-09-26T19:38:48.187Z,99115.22
2022-09-26T19:41:51.273Z,99112.84
2022-09-26T19:44:56.165Z,99116.34
2022-09-26T19:47:59.587Z,99122.13
2022-09-26T19:51:03.074Z,99115.69
2022-09-26T19:54:06.731Z,99115.50
2022-09-26T19:57:18.168Z,99108.19
2022-09-26T20:00:26.333Z,99103.00
2022-09-26T20:03:34.917Z,99113.12
2022-09-26T20:06:38.401Z,99104.69
2022-09-26T20:09:41.945Z,99110.31
2022-09-26T20:12:45.991Z,99101.87
2022-09-26T20:15:49.435Z,99106.03
2022-09-26T20:18:55.659Z,99113.44
2022-09-26T20:22:01.912Z,99110.31
2022-09-26T20:25:05.390Z,99107.66
2022-09-26T20:28:12.807Z,99105.84
2022-09-26T20:31:28.584Z,99106.28
2022-09-26T20:34:31.645Z,99097.00
2022-09-26T20:37:38.786Z,99101.31
2022-09-26T20:40:41.847Z,99098.84
2022-09-26T20:43:49.317Z,99091.06
2022-09-26T20:46:56.984Z,99100.56
2022-09-26T20:50:02.050Z,99100.88
2022-09-26T20:53:22.957Z,99104.06
2022-09-26T20:56:27.246Z,99097.94
2022-09-26T20:59:30.195Z,99093.31
2022-09-26T21:02:38.399Z,99095.97
2022-09-26T21:05:42.487Z,99094.91
2022-09-26T21:08:46.759Z,99100.13
2022-09-26T21:11:49.885Z,99101.25
2022-09-26T21:14:52.455Z,99094.00
2022-09-26T21:17:55.881Z,99092.19
2022-09-26T21:21:05.292Z,99084.88
2022-09-26T21:24:22.694Z,99083.06
2022-09-26T21:27:27.420Z,99073.59
2022-09-26T21:30:31.053Z,99080.50
2022-09-26T21:33:33.747Z,99077.69
2022-09-26T21:36:39.635Z,99077.00
2022-09-26T21:39:42.586Z,99071.41
2022-09-26T21:42:50.233Z,99071.63
2022-09-26T21:45:52.912Z,99069.28
2022-09-26T21:48:56.069Z,99063.66
2022-09-26T21:52:07.198Z,99061.28
2022-09-26T21:55:16.712Z,99049.38
2022-09-26T21:58:26.064Z,99050.34
2022-09-26T22:01:31.944Z,99046.09
2022-09-26T22:04:35.245Z,99040.94
2022-09-26T22:07:38.485Z,99039.25
2022-09-26T22:10:41.678Z,99044.59
2022-09-26T22:13:44.490Z,99048.56
2022-09-26T22:16:47.519Z,99046.09
2022-09-26T22:19:51.373Z,99041.59
2022-09-26T22:22:54.311Z,99047.75
2022-09-26T22:25:56.893Z,99039.94
2022-09-26T22:28:59.724Z,99037.97
2022-09-26T22:32:03.946Z,99026.22
2022-09-26T22:35:12.518Z,99014.94
2022-09-26T22:38:15.588Z,99009.47
2022-09-26T22:41:18.576Z,99005.81
2022-09-26T22:44:21.307Z,99009.59
2022-09-26T22:47:24.295Z,99012.44
2022-09-26T22:50:26.935Z,98995.69
2022-09-26T22:53:34.703Z,98988.59
2022-09-26T22:56:37.292Z,98981.81
2022-09-26T22:59:40.269Z,98982.09
2022-09-26T23:02:42.879Z,98974.63
2022-09-26T23:05:51.246Z,98975.13
2022-09-26T23:08:54.519Z,98983.88
2022-09-26T23:11:57.580Z,98973.94
2022-09-26T23:15:00.184Z,98967.66
2022-09-26T23:18:03.100Z,98966.28
2022-09-26T23:21:26.775Z,98956.87
2022-09-26T23:24:29.904Z,98952.28
2022-09-26T23:27:32.417Z,98951.06
2022-09-26T23:30:35.379Z,98949.91
2022-09-26T23:33:38.508Z,98947.13
2022-09-26T23:36:41.288Z,98943.16
2022-09-26T23:39:43.857Z,98945.03
2022-09-26T23:42:46.939Z,98942.28
2022-09-26T23:45:49.709Z,98936.09
2022-09-26T23:48:52.835Z,98929.50
2022-09-26T23:51:55.873Z,98931.44
2022-09-26T23:54:58.648Z,98926.75
2022-09-26T23:58:01.798Z,98928.06
